sensor_id;sensor_type;location;lat;lon;timestamp;temperature;humidity
9984;DHT22;16737;50.932;6.780;2023-04-01T00:02:15;13.70;92.30
9984;DHT22;16737;50.932;6.780;2023-04-01T00:04:42;13.70;92.30
9984;DHT22;16737;50.932;6.780;2023-04-01T00:07:10;13.60;92.30
9984;DHT22;16737;50.932;6.780;2023-04-01T00:09:37;13.60;92.30
9984;DHT22;16737;50.932;6.780;2023-04-01T00:12:06;13.60;92.40
9984;DHT22;16737;50.932;6.780;2023-04-01T00:14:33;13.60;92.40
9984;DHT22;16737;50.932;6.780;2023-04-01T00:17:02;13.60;92.30
9984;DHT22;16737;50.932;6.780;2023-04-01T00:19:29;13.60;92.30
9984;DHT22;16737;50.932;6.780;2023-04-01T00:21:57;13.70;92.30
9984;DHT22;16737;50.932;6.780;2023-04-01T00:24:24;13.60;92.30
9984;DHT22;16737;50.932;6.780;2023-04-01T00:26:51;13.60;92.40
9984;DHT22;16737;50.932;6.780;2023-04-01T00:29:19;13.60;92.40
9984;DHT22;16737;50.932;6.780;2023-04-01T00:31:46;13.70;92.40
9984;DHT22;16737;50.932;6.780;2023-04-01T00:34:14;13.70;92.40
9984;DHT22;16737;50.932;6.780;2023-04-01T00:36:41;13.60;92.40
9984;DHT22;16737;50.932;6.780;2023-04-01T00:39:08;13.60;92.40
9984;DHT22;16737;50.932;6.780;2023-04-01T00:41:35;13.60;92.40
9984;DHT22;16737;50.932;6.780;2023-04-01T00:44:16;13.60;92.40
9984;DHT22;16737;50.932;6.780;2023-04-01T00:46:46;13.60;92.50
9984;DHT22;16737;50.932;6.780;2023-04-01T00:49:14;13.60;92.40
9984;DHT22;16737;50.932;6.780;2023-04-01T00:51:45;13.60;92.50
9984;DHT22;16737;50.932;6.780;2023-04-01T00:54:16;13.60;92.50
9984;DHT22;16737;50.932;6.780;2023-04-01T00:56:49;13.60;92.50
9984;DHT22;16737;50.932;6.780;2023-04-01T00:59:24;13.60;92.50
9984;DHT22;16737;50.932;6.780;2023-04-01T01:01:53;13.60;92.50
9984;DHT22;16737;50.932;6.780;2023-04-01T01:04:25;13.60;92.40
9984;DHT22;16737;50.932;6.780;2023-04-01T01:07:00;13.60;92.50
9984;DHT22;16737;50.932;6.780;2023-04-01T01:09:41;13.60;92.60
9984;DHT22;16737;50.932;6.780;2023-04-01T01:12:19;13.60;92.60
9984;DHT22;16737;50.932;6.780;2023-04-01T01:15:05;13.60;92.50
9984;DHT22;16737;50.932;6.780;2023-04-01T01:17:48;13.60;92.60
9984;DHT22;16737;50.932;6.780;2023-04-01T01:24:09;13.70;92.70
9984;DHT22;16737;50.932;6.780;2023-04-01T01:26:53;13.60;92.60
9984;DHT22;16737;50.932;6.780;2023-04-01T01:29:46;13.60;92.60
9984;DHT22;16737;50.932;6.780;2023-04-01T01:32:40;13.60;92.70
9984;DHT22;16737;50.932;6.780;2023-04-01T01:35:22;13.60;92.60
9984;DHT22;16737;50.932;6.780;2023-04-01T01:37:56;13.60;92.60
9984;DHT22;16737;50.932;6.780;2023-04-01T01:40:27;13.60;92.70
9984;DHT22;16737;50.932;6.780;2023-04-01T01:43:02;13.50;92.60
9984;DHT22;16737;50.932;6.780;2023-04-01T01:45:34;13.50;92.60
9984;DHT22;16737;50.932;6.780;2023-04-01T01:48:05;13.50;92.70
9984;DHT22;16737;50.932;6.780;2023-04-01T01:50:36;13.50;92.60
9984;DHT22;16737;50.932;6.780;2023-04-01T01:53:05;13.50;92.70
9984;DHT22;16737;50.932;6.780;2023-04-01T01:55:35;13.50;92.80
9984;DHT22;16737;50.932;6.780;2023-04-01T01:58:09;13.50;92.80
9984;DHT22;16737;50.932;6.780;2023-04-01T02:00:42;13.40;92.90
9984;DHT22;16737;50.932;6.780;2023-04-01T02:03:12;13.40;93.00
9984;DHT22;16737;50.932;6.780;2023-04-01T02:05:42;13.40;93.00
9984;DHT22;16737;50.932;6.780;2023-04-01T02:08:13;13.40;92.90
9984;DHT22;16737;50.932;6.780;2023-04-01T02:10:48;13.30;92.80
9984;DHT22;16737;50.932;6.780;2023-04-01T02:13:25;13.30;92.90
9984;DHT22;16737;50.932;6.780;2023-04-01T02:15:59;13.30;93.00
9984;DHT22;16737;50.932;6.780;2023-04-01T02:18:34;13.20;92.90
9984;DHT22;16737;50.932;6.780;2023-04-01T02:21:05;13.20;92.90
9984;DHT22;16737;50.932;6.780;2023-04-01T02:23:35;13.20;93.00
9984;DHT22;16737;50.932;6.780;2023-04-01T02:26:05;13.10;93.00
9984;DHT22;16737;50.932;6.780;2023-04-01T02:28:37;13.10;93.00
9984;DHT22;16737;50.932;6.780;2023-04-01T02:31:06;13.10;93.00
9984;DHT22;16737;50.932;6.780;2023-04-01T02:33:35;13.10;93.10
9984;DHT22;16737;50.932;6.780;2023-04-01T02:36:06;13.00;93.10
9984;DHT22;16737;50.932;6.780;2023-04-01T02:38:37;13.00;93.20
9984;DHT22;16737;50.932;6.780;2023-04-01T02:41:06;13.00;93.30
9984;DHT22;16737;50.932;6.780;2023-04-01T02:43:33;12.90;93.20
9984;DHT22;16737;50.932;6.780;2023-04-01T02:46:00;12.90;93.30
9984;DHT22;16737;50.932;6.780;2023-04-01T02:48:27;12.90;93.40
9984;DHT22;16737;50.932;6.780;2023-04-01T02:50:55;12.90;93.40
9984;DHT22;16737;50.932;6.780;2023-04-01T02:53:23;12.90;93.40
9984;DHT22;16737;50.932;6.780;2023-04-01T02:55:50;12.90;93.60
9984;DHT22;16737;50.932;6.780;2023-04-01T02:58:18;12.90;93.60
9984;DHT22;16737;50.932;6.780;2023-04-01T03:00:45;12.90;93.60
9984;DHT22;16737;50.932;6.780;2023-04-01T03:03:12;12.80;93.50
9984;DHT22;16737;50.932;6.780;2023-04-01T03:05:40;12.80;93.50
9984;DHT22;16737;50.932;6.780;2023-04-01T03:08:07;12.80;93.60
9984;DHT22;16737;50.932;6.780;2023-04-01T03:10:35;12.80;93.50
9984;DHT22;16737;50.932;6.780;2023-04-01T03:13:02;12.90;93.50
9984;DHT22;16737;50.932;6.780;2023-04-01T03:15:29;12.90;93.50
9984;DHT22;16737;50.932;6.780;2023-04-01T03:17:56;12.90;93.50
9984;DHT22;16737;50.932;6.780;2023-04-01T03:20:23;12.80;93.50
9984;DHT22;16737;50.932;6.780;2023-04-01T03:22:50;12.80;93.50
9984;DHT22;16737;50.932;6.780;2023-04-01T03:25:18;12.90;93.60
9984;DHT22;16737;50.932;6.780;2023-04-01T03:27:46;12.80;93.60
9984;DHT22;16737;50.932;6.780;2023-04-01T03:30:13;12.90;93.60
9984;DHT22;16737;50.932;6.780;2023-04-01T03:32:40;12.90;93.60
9984;DHT22;16737;50.932;6.780;2023-04-01T03:35:08;12.90;93.60
9984;DHT22;16737;50.932;6.780;2023-04-01T03:37:35;12.90;93.70
9984;DHT22;16737;50.932;6.780;2023-04-01T03:40:04;12.90;93.70
9984;DHT22;16737;50.932;6.780;2023-04-01T03:42:31;12.90;93.70
9984;DHT22;16737;50.932;6.780;2023-04-01T03:45:00;12.90;93.70
9984;DHT22;16737;50.932;6.780;2023-04-01T03:47:27;12.90;93.70
9984;DHT22;16737;50.932;6.780;2023-04-01T03:49:53;12.90;93.70
9984;DHT22;16737;50.932;6.780;2023-04-01T03:52:21;12.90;93.70
9984;DHT22;16737;50.932;6.780;2023-04-01T03:54:48;12.90;93.80
9984;DHT22;16737;50.932;6.780;2023-04-01T03:57:15;12.90;93.80
9984;DHT22;16737;50.932;6.780;2023-04-01T03:59:42;12.90;93.80
9984;DHT22;16737;50.932;6.780;2023-04-01T04:02:10;12.90;93.80
9984;DHT22;16737;50.932;6.780;2023-04-01T04:04:37;13.00;93.90
9984;DHT22;16737;50.932;6.780;2023-04-01T04:07:04;13.00;93.90
9984;DHT22;16737;50.932;6.780;2023-04-01T04:09:31;12.90;93.80
9984;DHT22;16737;50.932;6.780;2023-04-01T04:11:58;13.00;93.90
9984;DHT22;16737;50.932;6.780;2023-04-01T04:14:25;13.00;93.90
9984;DHT22;16737;50.932;6.780;2023-04-01T04:16:53;12.90;93.90
9984;DHT22;16737;50.932;6.780;2023-04-01T04:19:21;13.00;94.00
9984;DHT22;16737;50.932;6.780;2023-04-01T04:21:48;12.90;94.10
9984;DHT22;16737;50.932;6.780;2023-04-01T04:24:15;13.00;94.00
9984;DHT22;16737;50.932;6.780;2023-04-01T04:26:42;12.90;94.00
9984;DHT22;16737;50.932;6.780;2023-04-01T04:29:09;13.00;94.00
9984;DHT22;16737;50.932;6.780;2023-04-01T04:31:36;12.90;93.90
9984;DHT22;16737;50.932;6.780;2023-04-01T04:34:03;13.00;94.10
9984;DHT22;16737;50.932;6.780;2023-04-01T04:36:31;12.90;94.00
9984;DHT22;16737;50.932;6.780;2023-04-01T04:38:58;12.90;94.10
9984;DHT22;16737;50.932;6.780;2023-04-01T04:41:27;12.90;94.00
9984;DHT22;16737;50.932;6.780;2023-04-01T04:43:55;12.90;94.00
9984;DHT22;16737;50.932;6.780;2023-04-01T04:46:24;12.90;94.10
9984;DHT22;16737;50.932;6.780;2023-04-01T04:48:51;12.80;94.10
9984;DHT22;16737;50.932;6.780;2023-04-01T04:51:20;12.90;94.20
9984;DHT22;16737;50.932;6.780;2023-04-01T04:53:49;12.80;94.20
9984;DHT22;16737;50.932;6.780;2023-04-01T04:56:18;12.80;94.20
9984;DHT22;16737;50.932;6.780;2023-04-01T04:58:45;12.80;94.40
9984;DHT22;16737;50.932;6.780;2023-04-01T05:01:15;12.80;94.30
9984;DHT22;16737;50.932;6.780;2023-04-01T05:03:43;12.80;94.40
9984;DHT22;16737;50.932;6.780;2023-04-01T05:06:12;12.70;94.40
9984;DHT22;16737;50.932;6.780;2023-04-01T05:08:41;12.70;94.50
9984;DHT22;16737;50.932;6.780;2023-04-01T05:11:13;12.70;94.60
9984;DHT22;16737;50.932;6.780;2023-04-01T05:13:41;12.70;94.60
9984;DHT22;16737;50.932;6.780;2023-04-01T05:16:11;12.70;94.50
9984;DHT22;16737;50.932;6.780;2023-04-01T05:18:39;12.70;94.60
9984;DHT22;16737;50.932;6.780;2023-04-01T05:21:07;12.70;94.60
9984;DHT22;16737;50.932;6.780;2023-04-01T05:23:35;12.70;94.60
9984;DHT22;16737;50.932;6.780;2023-04-01T05:26:03;12.70;94.70
9984;DHT22;16737;50.932;6.780;2023-04-01T05:28:32;12.70;94.60
9984;DHT22;16737;50.932;6.780;2023-04-01T05:31:00;12.70;94.80
9984;DHT22;16737;50.932;6.780;2023-04-01T05:33:29;12.70;94.80
9984;DHT22;16737;50.932;6.780;2023-04-01T05:35:56;12.60;94.80
9984;DHT22;16737;50.932;6.780;2023-04-01T05:38:33;12.70;94.90
9984;DHT22;16737;50.932;6.780;2023-04-01T05:41:01;12.60;95.00
9984;DHT22;16737;50.932;6.780;2023-04-01T05:43:29;12.60;95.00
9984;DHT22;16737;50.932;6.780;2023-04-01T05:45:57;12.70;95.10
9984;DHT22;16737;50.932;6.780;2023-04-01T05:48:24;12.70;95.10
9984;DHT22;16737;50.932;6.780;2023-04-01T05:50:52;12.60;95.00
9984;DHT22;16737;50.932;6.780;2023-04-01T05:53:19;12.70;95.00
9984;DHT22;16737;50.932;6.780;2023-04-01T05:55:46;12.70;95.00
9984;DHT22;16737;50.932;6.780;2023-04-01T05:58:13;12.60;95.00
9984;DHT22;16737;50.932;6.780;2023-04-01T06:00:40;12.60;95.10
9984;DHT22;16737;50.932;6.780;2023-04-01T06:03:08;12.60;95.30
9984;DHT22;16737;50.932;6.780;2023-04-01T06:05:39;12.60;95.40
9984;DHT22;16737;50.932;6.780;2023-04-01T06:08:11;12.60;95.40
9984;DHT22;16737;50.932;6.780;2023-04-01T06:10:51;12.60;95.40
9984;DHT22;16737;50.932;6.780;2023-04-01T06:13:34;12.60;95.70
9984;DHT22;16737;50.932;6.780;2023-04-01T06:16:16;12.60;95.60
9984;DHT22;16737;50.932;6.780;2023-04-01T06:19:10;12.60;95.70
9984;DHT22;16737;50.932;6.780;2023-04-01T06:25:32;12.60;96.20
9984;DHT22;16737;50.932;6.780;2023-04-01T06:28:42;12.60;95.70
9984;DHT22;16737;50.932;6.780;2023-04-01T06:31:39;12.60;95.90
9984;DHT22;16737;50.932;6.780;2023-04-01T06:34:42;12.60;95.80
9984;DHT22;16737;50.932;6.780;2023-04-01T06:37:55;12.60;96.00
9984;DHT22;16737;50.932;6.780;2023-04-01T06:40:53;12.60;95.80
9984;DHT22;16737;50.932;6.780;2023-04-01T06:43:40;12.60;96.10
9984;DHT22;16737;50.932;6.780;2023-04-01T06:46:21;12.60;95.80
9984;DHT22;16737;50.932;6.780;2023-04-01T06:49:17;12.60;95.70
9984;DHT22;16737;50.932;6.780;2023-04-01T06:52:02;12.70;96.10
9984;DHT22;16737;50.932;6.780;2023-04-01T06:54:42;12.60;95.70
9984;DHT22;16737;50.932;6.780;2023-04-01T06:57:20;12.60;95.80
9984;DHT22;16737;50.932;6.780;2023-04-01T06:59:54;12.60;95.90
9984;DHT22;16737;50.932;6.780;2023-04-01T07:02:29;12.70;95.90
9984;DHT22;16737;50.932;6.780;2023-04-01T07:05:02;12.70;95.90
9984;DHT22;16737;50.932;6.780;2023-04-01T07:07:36;12.70;95.90
9984;DHT22;16737;50.932;6.780;2023-04-01T07:10:11;12.70;96.10
9984;DHT22;16737;50.932;6.780;2023-04-01T07:12:47;12.80;96.10
9984;DHT22;16737;50.932;6.780;2023-04-01T07:15:21;12.70;95.80
9984;DHT22;16737;50.932;6.780;2023-04-01T07:17:54;12.70;95.80
9984;DHT22;16737;50.932;6.780;2023-04-01T07:20:29;12.70;95.80
9984;DHT22;16737;50.932;6.780;2023-04-01T07:22:59;12.70;95.80
9984;DHT22;16737;50.932;6.780;2023-04-01T07:25:31;12.70;95.70
9984;DHT22;16737;50.932;6.780;2023-04-01T07:28:04;12.70;95.80
9984;DHT22;16737;50.932;6.780;2023-04-01T07:30:40;12.70;95.80
9984;DHT22;16737;50.932;6.780;2023-04-01T07:33:20;12.70;95.90
9984;DHT22;16737;50.932;6.780;2023-04-01T07:35:56;12.70;95.80
9984;DHT22;16737;50.932;6.780;2023-04-01T07:38:32;12.70;95.80
9984;DHT22;16737;50.932;6.780;2023-04-01T07:41:13;12.70;95.80
9984;DHT22;16737;50.932;6.780;2023-04-01T07:43:56;12.70;95.90
9984;DHT22;16737;50.932;6.780;2023-04-01T07:46:53;12.80;96.00
9984;DHT22;16737;50.932;6.780;2023-04-01T07:49:32;12.70;96.20
9984;DHT22;16737;50.932;6.780;2023-04-01T07:52:13;12.70;95.90
9984;DHT22;16737;50.932;6.780;2023-04-01T07:54:50;12.70;96.00
9984;DHT22;16737;50.932;6.780;2023-04-01T07:57:29;12.70;95.90
9984;DHT22;16737;50.932;6.780;2023-04-01T08:00:07;12.70;96.00
9984;DHT22;16737;50.932;6.780;2023-04-01T08:02:48;12.70;96.10
9984;DHT22;16737;50.932;6.780;2023-04-01T08:05:36;12.70;96.20
9984;DHT22;16737;50.932;6.780;2023-04-01T08:08:16;12.70;96.10
9984;DHT22;16737;50.932;6.780;2023-04-01T08:10:54;12.70;96.20
9984;DHT22;16737;50.932;6.780;2023-04-01T08:13:34;12.70;96.10
9984;DHT22;16737;50.932;6.780;2023-04-01T08:16:12;12.70;96.20
9984;DHT22;16737;50.932;6.780;2023-04-01T08:18:50;12.70;96.20
9984;DHT22;16737;50.932;6.780;2023-04-01T08:21:28;12.70;96.20
9984;DHT22;16737;50.932;6.780;2023-04-01T08:24:08;12.70;96.30
9984;DHT22;16737;50.932;6.780;2023-04-01T08:26:54;12.70;96.40
9984;DHT22;16737;50.932;6.780;2023-04-01T08:29:31;12.70;96.40
9984;DHT22;16737;50.932;6.780;2023-04-01T08:32:08;12.70;96.40
9984;DHT22;16737;50.932;6.780;2023-04-01T08:34:42;12.80;96.40
9984;DHT22;16737;50.932;6.780;2023-04-01T08:37:15;12.70;96.40
9984;DHT22;16737;50.932;6.780;2023-04-01T08:39:49;12.70;96.40
9984;DHT22;16737;50.932;6.780;2023-04-01T08:42:34;12.70;96.40
9984;DHT22;16737;50.932;6.780;2023-04-01T08:45:21;12.70;96.70
9984;DHT22;16737;50.932;6.780;2023-04-01T08:48:32;12.70;96.50
9984;DHT22;16737;50.932;6.780;2023-04-01T08:51:43;12.70;96.70
9984;DHT22;16737;50.932;6.780;2023-04-01T08:54:51;12.70;96.70
9984;DHT22;16737;50.932;6.780;2023-04-01T08:57:38;12.70;96.60
9984;DHT22;16737;50.932;6.780;2023-04-01T09:00:22;12.70;96.60
9984;DHT22;16737;50.932;6.780;2023-04-01T09:03:19;12.70;96.70
9984;DHT22;16737;50.932;6.780;2023-04-01T09:09:25;12.70;96.90
9984;DHT22;16737;50.932;6.780;2023-04-01T09:12:31;12.70;96.90
9984;DHT22;16737;50.932;6.780;2023-04-01T09:15:37;12.70;96.90
9984;DHT22;16737;50.932;6.780;2023-04-01T09:18:28;12.70;96.90
9984;DHT22;16737;50.932;6.780;2023-04-01T09:24:41;12.80;97.00
9984;DHT22;16737;50.932;6.780;2023-04-01T09:27:27;12.80;97.10
9984;DHT22;16737;50.932;6.780;2023-04-01T09:30:48;12.80;97.00
9984;DHT22;16737;50.932;6.780;2023-04-01T09:33:58;12.80;97.10
9984;DHT22;16737;50.932;6.780;2023-04-01T09:36:45;12.80;97.00
9984;DHT22;16737;50.932;6.780;2023-04-01T09:39:26;12.80;96.80
9984;DHT22;16737;50.932;6.780;2023-04-01T09:42:29;12.80;97.00
9984;DHT22;16737;50.932;6.780;2023-04-01T09:45:23;12.80;97.10
9984;DHT22;16737;50.932;6.780;2023-04-01T09:48:14;12.80;97.00
9984;DHT22;16737;50.932;6.780;2023-04-01T09:51:01;12.80;97.00
9984;DHT22;16737;50.932;6.780;2023-04-01T09:53:48;12.90;97.10
9984;DHT22;16737;50.932;6.780;2023-04-01T10:00:06;12.90;97.30
9984;DHT22;16737;50.932;6.780;2023-04-01T10:10:19;12.90;97.10
9984;DHT22;16737;50.932;6.780;2023-04-01T10:16:57;12.90;97.20
9984;DHT22;16737;50.932;6.780;2023-04-01T10:20:08;13.00;97.40
9984;DHT22;16737;50.932;6.780;2023-04-01T10:30:07;13.00;97.30
9984;DHT22;16737;50.932;6.780;2023-04-01T10:33:08;13.10;97.30
9984;DHT22;16737;50.932;6.780;2023-04-01T10:36:25;13.10;97.20
9984;DHT22;16737;50.932;6.780;2023-04-01T10:39:34;13.10;97.50
9984;DHT22;16737;50.932;6.780;2023-04-01T10:45:57;13.10;97.30
9984;DHT22;16737;50.932;6.780;2023-04-01T10:49:02;13.10;97.20
9984;DHT22;16737;50.932;6.780;2023-04-01T10:52:09;13.20;97.40
9984;DHT22;16737;50.932;6.780;2023-04-01T10:55:05;13.10;97.40
9984;DHT22;16737;50.932;6.780;2023-04-01T10:58:22;13.20;97.40
9984;DHT22;16737;50.932;6.780;2023-04-01T11:01:36;13.20;97.50
9984;DHT22;16737;50.932;6.780;2023-04-01T11:04:51;13.20;97.50
9984;DHT22;16737;50.932;6.780;2023-04-01T11:08:16;13.30;97.50
9984;DHT22;16737;50.932;6.780;2023-04-01T11:18:32;13.30;97.30
9984;DHT22;16737;50.932;6.780;2023-04-01T11:28:47;13.30;97.50
9984;DHT22;16737;50.932;6.780;2023-04-01T11:34:42;13.30;97.30
9984;DHT22;16737;50.932;6.780;2023-04-01T11:37:33;13.30;97.30
9984;DHT22;16737;50.932;6.780;2023-04-01T11:40:17;13.30;97.60
9984;DHT22;16737;50.932;6.780;2023-04-01T11:42:54;13.30;97.60
9984;DHT22;16737;50.932;6.780;2023-04-01T11:45:34;13.40;97.60
9984;DHT22;16737;50.932;6.780;2023-04-01T11:48:32;13.40;97.70
9984;DHT22;16737;50.932;6.780;2023-04-01T11:51:29;13.40;97.80
9984;DHT22;16737;50.932;6.780;2023-04-01T11:54:34;13.40;97.70
9984;DHT22;16737;50.932;6.780;2023-04-01T11:57:39;13.50;97.70
9984;DHT22;16737;50.932;6.780;2023-04-01T12:00:47;13.50;97.70
9984;DHT22;16737;50.932;6.780;2023-04-01T12:03:46;13.50;97.70
9984;DHT22;16737;50.932;6.780;2023-04-01T12:06:29;13.60;97.70
9984;DHT22;16737;50.932;6.780;2023-04-01T12:09:06;13.60;97.70
9984;DHT22;16737;50.932;6.780;2023-04-01T12:11:48;13.60;97.70
9984;DHT22;16737;50.932;6.780;2023-04-01T12:14:32;13.70;97.80
9984;DHT22;16737;50.932;6.780;2023-04-01T12:17:15;13.70;97.90
9984;DHT22;16737;50.932;6.780;2023-04-01T12:19:55;13.80;97.80
9984;DHT22;16737;50.932;6.780;2023-04-01T12:22:36;13.80;97.80
9984;DHT22;16737;50.932;6.780;2023-04-01T12:25:28;13.80;97.90
9984;DHT22;16737;50.932;6.780;2023-04-01T12:28:19;13.90;98.00
9984;DHT22;16737;50.932;6.780;2023-04-01T12:31:02;13.90;97.70
9984;DHT22;16737;50.932;6.780;2023-04-01T12:36:56;14.00;97.90
9984;DHT22;16737;50.932;6.780;2023-04-01T12:40:02;14.00;97.80
9984;DHT22;16737;50.932;6.780;2023-04-01T12:43:02;14.00;97.90
9984;DHT22;16737;50.932;6.780;2023-04-01T12:45:49;14.00;97.80
9984;DHT22;16737;50.932;6.780;2023-04-01T12:48:44;14.00;97.70
9984;DHT22;16737;50.932;6.780;2023-04-01T12:52:04;14.00;97.70
9984;DHT22;16737;50.932;6.780;2023-04-01T12:55:17;14.00;97.70
9984;DHT22;16737;50.932;6.780;2023-04-01T12:58:41;14.00;97.80
9984;DHT22;16737;50.932;6.780;2023-04-01T13:01:50;14.00;97.60
9984;DHT22;16737;50.932;6.780;2023-04-01T13:04:48;14.00;97.70
9984;DHT22;16737;50.932;6.780;2023-04-01T13:11:07;14.10;97.80
9984;DHT22;16737;50.932;6.780;2023-04-01T13:14:07;14.10;97.60
9984;DHT22;16737;50.932;6.780;2023-04-01T13:17:08;14.10;97.60
9984;DHT22;16737;50.932;6.780;2023-04-01T13:19:45;14.10;97.50
9984;DHT22;16737;50.932;6.780;2023-04-01T13:22:27;14.10;97.50
9984;DHT22;16737;50.932;6.780;2023-04-01T13:25:21;14.00;97.50
9984;DHT22;16737;50.932;6.780;2023-04-01T13:27:58;14.00;97.60
9984;DHT22;16737;50.932;6.780;2023-04-01T13:30:37;14.00;97.60
9984;DHT22;16737;50.932;6.780;2023-04-01T13:33:16;14.00;97.40
9984;DHT22;16737;50.932;6.780;2023-04-01T13:36:01;14.00;97.50
9984;DHT22;16737;50.932;6.780;2023-04-01T13:39:08;14.00;97.40
9984;DHT22;16737;50.932;6.780;2023-04-01T13:42:02;14.00;97.60
9984;DHT22;16737;50.932;6.780;2023-04-01T13:44:43;14.00;97.70
9984;DHT22;16737;50.932;6.780;2023-04-01T13:47:48;14.00;97.60
9984;DHT22;16737;50.932;6.780;2023-04-01T13:50:53;14.00;97.80
9984;DHT22;16737;50.932;6.780;2023-04-01T13:57:14;14.10;97.90
9984;DHT22;16737;50.932;6.780;2023-04-01T14:00:07;14.10;97.80
9984;DHT22;16737;50.932;6.780;2023-04-01T14:03:03;14.20;97.80
9984;DHT22;16737;50.932;6.780;2023-04-01T14:06:09;14.20;97.60
9984;DHT22;16737;50.932;6.780;2023-04-01T14:09:01;14.20;97.50
9984;DHT22;16737;50.932;6.780;2023-04-01T14:11:55;14.20;97.50
9984;DHT22;16737;50.932;6.780;2023-04-01T14:14:36;14.20;97.50
9984;DHT22;16737;50.932;6.780;2023-04-01T14:17:27;14.20;97.60
9984;DHT22;16737;50.932;6.780;2023-04-01T14:20:15;14.20;97.70
9984;DHT22;16737;50.932;6.780;2023-04-01T14:23:13;14.10;97.60
9984;DHT22;16737;50.932;6.780;2023-04-01T14:26:00;14.10;97.60
9984;DHT22;16737;50.932;6.780;2023-04-01T14:28:54;14.10;97.60
9984;DHT22;16737;50.932;6.780;2023-04-01T14:31:37;14.10;97.50
9984;DHT22;16737;50.932;6.780;2023-04-01T14:34:25;14.00;97.50
9984;DHT22;16737;50.932;6.780;2023-04-01T14:37:19;14.00;97.60
9984;DHT22;16737;50.932;6.780;2023-04-01T14:40:22;14.00;97.60
9984;DHT22;16737;50.932;6.780;2023-04-01T14:43:09;13.90;97.70
9984;DHT22;16737;50.932;6.780;2023-04-01T14:46:11;13.90;97.70
9984;DHT22;16737;50.932;6.780;2023-04-01T14:48:53;13.90;97.90
9984;DHT22;16737;50.932;6.780;2023-04-01T14:51:30;13.90;97.70
9984;DHT22;16737;50.932;6.780;2023-04-01T14:54:04;13.90;97.80
9984;DHT22;16737;50.932;6.780;2023-04-01T14:56:39;13.90;98.20
9984;DHT22;16737;50.932;6.780;2023-04-01T14:59:10;13.90;97.90
9984;DHT22;16737;50.932;6.780;2023-04-01T15:01:47;13.90;97.80
9984;DHT22;16737;50.932;6.780;2023-04-01T15:04:30;13.90;97.80
9984;DHT22;16737;50.932;6.780;2023-04-01T15:07:43;13.90;97.90
9984;DHT22;16737;50.932;6.780;2023-04-01T15:10:32;13.90;98.00
9984;DHT22;16737;50.932;6.780;2023-04-01T15:13:13;13.90;98.00
9984;DHT22;16737;50.932;6.780;2023-04-01T15:15:57;13.90;97.80
9984;DHT22;16737;50.932;6.780;2023-04-01T15:18:39;13.90;98.00
9984;DHT22;16737;50.932;6.780;2023-04-01T15:21:23;13.90;97.90
9984;DHT22;16737;50.932;6.780;2023-04-01T15:24:07;13.90;97.90
9984;DHT22;16737;50.932;6.780;2023-04-01T15:30:17;13.90;97.90
9984;DHT22;16737;50.932;6.780;2023-04-01T15:36:25;13.90;97.70
9984;DHT22;16737;50.932;6.780;2023-04-01T15:39:04;13.90;97.60
9984;DHT22;16737;50.932;6.780;2023-04-01T15:41:48;13.80;97.60
9984;DHT22;16737;50.932;6.780;2023-04-01T15:44:44;13.80;97.60
9984;DHT22;16737;50.932;6.780;2023-04-01T15:47:32;13.80;97.60
9984;DHT22;16737;50.932;6.780;2023-04-01T15:54:04;13.80;97.80
9984;DHT22;16737;50.932;6.780;2023-04-01T15:56:51;13.80;97.80
9984;DHT22;16737;50.932;6.780;2023-04-01T15:59:51;13.80;97.70
9984;DHT22;16737;50.932;6.780;2023-04-01T16:02:32;13.80;97.90
9984;DHT22;16737;50.932;6.780;2023-04-01T16:05:09;13.80;97.80
9984;DHT22;16737;50.932;6.780;2023-04-01T16:08:02;13.80;97.80
9984;DHT22;16737;50.932;6.780;2023-04-01T16:11:12;13.80;97.80
9984;DHT22;16737;50.932;6.780;2023-04-01T16:13:54;13.80;97.80
9984;DHT22;16737;50.932;6.780;2023-04-01T16:16:40;13.80;97.70
9984;DHT22;16737;50.932;6.780;2023-04-01T16:19:44;13.80;97.80
9984;DHT22;16737;50.932;6.780;2023-04-01T16:22:20;13.70;97.80
9984;DHT22;16737;50.932;6.780;2023-04-01T16:25:07;13.70;97.60
9984;DHT22;16737;50.932;6.780;2023-04-01T16:27:50;13.70;97.70
9984;DHT22;16737;50.932;6.780;2023-04-01T16:30:41;13.60;97.90
9984;DHT22;16737;50.932;6.780;2023-04-01T16:33:20;13.60;97.90
9984;DHT22;16737;50.932;6.780;2023-04-01T16:35:57;13.60;97.80
9984;DHT22;16737;50.932;6.780;2023-04-01T16:38:35;13.60;97.80
9984;DHT22;16737;50.932;6.780;2023-04-01T16:41:11;13.50;98.00
9984;DHT22;16737;50.932;6.780;2023-04-01T16:43:45;13.50;97.90
9984;DHT22;16737;50.932;6.780;2023-04-01T16:46:32;13.50;97.80
9984;DHT22;16737;50.932;6.780;2023-04-01T16:49:26;13.50;98.00
9984;DHT22;16737;50.932;6.780;2023-04-01T16:52:14;13.50;98.00
9984;DHT22;16737;50.932;6.780;2023-04-01T16:54:46;13.50;98.00
9984;DHT22;16737;50.932;6.780;2023-04-01T16:57:20;13.50;97.90
9984;DHT22;16737;50.932;6.780;2023-04-01T16:59:57;13.40;97.90
9984;DHT22;16737;50.932;6.780;2023-04-01T17:02:33;13.40;98.30
9984;DHT22;16737;50.932;6.780;2023-04-01T17:05:06;13.40;98.00
9984;DHT22;16737;50.932;6.780;2023-04-01T17:07:48;13.40;98.00
9984;DHT22;16737;50.932;6.780;2023-04-01T17:10:45;13.40;98.10
9984;DHT22;16737;50.932;6.780;2023-04-01T17:13:34;13.40;98.10
9984;DHT22;16737;50.932;6.780;2023-04-01T17:16:13;13.40;98.00
9984;DHT22;16737;50.932;6.780;2023-04-01T17:18:52;13.40;97.90
9984;DHT22;16737;50.932;6.780;2023-04-01T17:21:33;13.30;97.90
9984;DHT22;16737;50.932;6.780;2023-04-01T17:24:26;13.30;98.00
9984;DHT22;16737;50.932;6.780;2023-04-01T17:27:04;13.30;98.10
9984;DHT22;16737;50.932;6.780;2023-04-01T17:30:01;13.30;98.00
9984;DHT22;16737;50.932;6.780;2023-04-01T17:32:46;13.30;98.20
9984;DHT22;16737;50.932;6.780;2023-04-01T17:35:26;13.30;98.10
9984;DHT22;16737;50.932;6.780;2023-04-01T17:38:06;13.30;98.10
9984;DHT22;16737;50.932;6.780;2023-04-01T17:40:56;13.20;98.20
9984;DHT22;16737;50.932;6.780;2023-04-01T17:43:42;13.20;98.20
9984;DHT22;16737;50.932;6.780;2023-04-01T17:46:28;13.20;98.20
9984;DHT22;16737;50.932;6.780;2023-04-01T17:49:19;13.20;98.30
9984;DHT22;16737;50.932;6.780;2023-04-01T17:51:58;13.20;98.20
9984;DHT22;16737;50.932;6.780;2023-04-01T17:54:38;13.20;98.10
9984;DHT22;16737;50.932;6.780;2023-04-01T17:57:33;13.10;98.10
9984;DHT22;16737;50.932;6.780;2023-04-01T18:00:23;13.10;98.20
9984;DHT22;16737;50.932;6.780;2023-04-01T18:03:00;13.00;98.10
9984;DHT22;16737;50.932;6.780;2023-04-01T18:05:47;13.00;98.00
9984;DHT22;16737;50.932;6.780;2023-04-01T18:08:37;13.00;98.10
9984;DHT22;16737;50.932;6.780;2023-04-01T18:11:22;12.90;98.10
9984;DHT22;16737;50.932;6.780;2023-04-01T18:17:23;12.90;98.30
9984;DHT22;16737;50.932;6.780;2023-04-01T18:20:22;12.80;98.10
9984;DHT22;16737;50.932;6.780;2023-04-01T18:22:59;12.80;98.40
9984;DHT22;16737;50.932;6.780;2023-04-01T18:25:34;12.80;98.20
9984;DHT22;16737;50.932;6.780;2023-04-01T18:28:30;12.80;98.20
9984;DHT22;16737;50.932;6.780;2023-04-01T18:31:08;12.80;98.50
9984;DHT22;16737;50.932;6.780;2023-04-01T18:33:46;12.80;98.30
9984;DHT22;16737;50.932;6.780;2023-04-01T18:36:21;12.70;98.30